sensor_id;sensor_type;location;lat;lon;timestamp;temperature;humidity
41547;DHT22;27271;45.412;10.852;2022-10-16T17:11:14;17.90;99.90
41547;DHT22;27271;45.412;10.852;2022-10-16T17:14:37;17.70;99.90
41547;DHT22;27271;45.412;10.852;2022-10-16T17:17:59;17.60;99.90
41547;DHT22;27271;45.412;10.852;2022-10-16T17:21:21;17.60;99.90
41547;DHT22;27271;45.412;10.852;2022-10-16T17:24:44;17.50;99.90
41547;DHT22;27271;45.412;10.852;2022-10-16T17:28:09;17.40;99.90
41547;DHT22;27271;45.412;10.852;2022-10-16T17:31:39;17.40;99.90
41547;DHT22;27271;45.412;10.852;2022-10-16T17:35:02;17.30;99.90
41547;DHT22;27271;45.412;10.852;2022-10-16T17:38:29;17.20;99.90
41547;DHT22;27271;45.412;10.852;2022-10-16T17:41:56;17.10;99.90
41547;DHT22;27271;45.412;10.852;2022-10-16T17:45:36;17.10;99.90
41547;DHT22;27271;45.412;10.852;2022-10-16T17:49:03;17.10;99.90
41547;DHT22;27271;45.412;10.852;2022-10-16T17:52:30;17.00;99.90
41547;DHT22;27271;45.412;10.852;2022-10-16T17:55:52;17.00;99.90
41547;DHT22;27271;45.412;10.852;2022-10-16T17:59:19;16.80;99.90
41547;DHT22;27271;45.412;10.852;2022-10-16T18:02:44;16.80;99.90
41547;DHT22;27271;45.412;10.852;2022-10-16T18:06:06;16.70;99.90
41547;DHT22;27271;45.412;10.852;2022-10-16T18:09:28;16.50;99.90
41547;DHT22;27271;45.412;10.852;2022-10-16T18:12:53;16.60;99.90
41547;DHT22;27271;45.412;10.852;2022-10-16T18:16:25;16.50;99.90
41547;DHT22;27271;45.412;10.852;2022-10-16T18:19:50;16.50;99.90
41547;DHT22;27271;45.412;10.852;2022-10-16T18:23:15;16.50;99.90
41547;DHT22;27271;45.412;10.852;2022-10-16T18:26:38;16.60;99.90
41547;DHT22;27271;45.412;10.852;2022-10-16T18:30:09;16.50;99.90
41547;DHT22;27271;45.412;10.852;2022-10-16T18:33:32;16.40;99.90
41547;DHT22;27271;45.412;10.852;2022-10-16T18:36:54;16.40;99.90
41547;DHT22;27271;45.412;10.852;2022-10-16T18:40:18;16.40;99.90
41547;DHT22;27271;45.412;10.852;2022-10-16T18:43:48;16.30;99.90
41547;DHT22;27271;45.412;10.852;2022-10-16T18:47:11;16.30;99.90
41547;DHT22;27271;45.412;10.852;2022-10-16T18:50:36;16.20;99.90
41547;DHT22;27271;45.412;10.852;2022-10-16T18:54:07;16.10;99.90
41547;DHT22;27271;45.412;10.852;2022-10-16T18:57:30;16.00;99.90
41547;DHT22;27271;45.412;10.852;2022-10-16T19:00:55;16.00;99.90
41547;DHT22;27271;45.412;10.852;2022-10-16T19:04:22;16.00;99.90
41547;DHT22;27271;45.412;10.852;2022-10-16T19:07:46;16.00;99.90
41547;DHT22;27271;45.412;10.852;2022-10-16T19:11:11;16.00;99.90
41547;DHT22;27271;45.412;10.852;2022-10-16T19:14:49;15.90;99.90
41547;DHT22;27271;45.412;10.852;2022-10-16T19:18:13;15.90;99.90
41547;DHT22;27271;45.412;10.852;2022-10-16T19:21:36;15.90;99.90
41547;DHT22;27271;45.412;10.852;2022-10-16T19:25:00;15.90;99.90
41547;DHT22;27271;45.412;10.852;2022-10-16T19:28:22;15.90;99.90
41547;DHT22;27271;45.412;10.852;2022-10-16T19:31:44;15.80;99.90
41547;DHT22;27271;45.412;10.852;2022-10-16T19:35:07;15.80;99.90
41547;DHT22;27271;45.412;10.852;2022-10-16T19:38:32;15.70;99.90
41547;DHT22;27271;45.412;10.852;2022-10-16T19:41:54;15.60;99.90
41547;DHT22;27271;45.412;10.852;2022-10-16T19:45:16;15.50;99.90
41547;DHT22;27271;45.412;10.852;2022-10-16T19:48:39;15.40;99.90
41547;DHT22;27271;45.412;10.852;2022-10-16T19:52:01;15.50;99.90
41547;DHT22;27271;45.412;10.852;2022-10-16T19:55:23;15.40;99.90
41547;DHT22;27271;45.412;10.852;2022-10-16T19:58:45;15.40;99.90
41547;DHT22;27271;45.412;10.852;2022-10-16T20:02:08;15.40;99.90
41547;DHT22;27271;45.412;10.852;2022-10-16T20:05:30;15.40;99.90
41547;DHT22;27271;45.412;10.852;2022-10-16T20:08:53;15.40;99.90
41547;DHT22;27271;45.412;10.852;2022-10-16T20:12:15;15.40;99.90
41547;DHT22;27271;45.412;10.852;2022-10-16T20:15:38;15.30;99.90
41547;DHT22;27271;45.412;10.852;2022-10-16T20:19:00;15.30;99.90
41547;DHT22;27271;45.412;10.852;2022-10-16T20:22:23;15.20;99.90
41547;DHT22;27271;45.412;10.852;2022-10-16T20:25:46;15.20;99.90
41547;DHT22;27271;45.412;10.852;2022-10-16T20:29:08;15.20;99.90
41547;DHT22;27271;45.412;10.852;2022-10-16T20:32:30;15.10;99.90
41547;DHT22;27271;45.412;10.852;2022-10-16T20:35:52;15.10;99.90
41547;DHT22;27271;45.412;10.852;2022-10-16T20:39:14;15.10;99.90
41547;DHT22;27271;45.412;10.852;2022-10-16T20:42:36;15.10;99.90
41547;DHT22;27271;45.412;10.852;2022-10-16T20:46:00;15.00;99.90
41547;DHT22;27271;45.412;10.852;2022-10-16T20:49:22;14.90;99.90
41547;DHT22;27271;45.412;10.852;2022-10-16T20:53:00;14.90;99.90
41547;DHT22;27271;45.412;10.852;2022-10-16T20:56:24;14.90;99.90
41547;DHT22;27271;45.412;10.852;2022-10-16T20:59:48;14.80;99.90
41547;DHT22;27271;45.412;10.852;2022-10-16T21:03:15;14.80;99.90
41547;DHT22;27271;45.412;10.852;2022-10-16T21:06:38;14.80;99.90
41547;DHT22;27271;45.412;10.852;2022-10-16T21:10:00;14.80;99.90
41547;DHT22;27271;45.412;10.852;2022-10-16T21:13:22;14.80;99.90
41547;DHT22;27271;45.412;10.852;2022-10-16T21:16:54;14.70;99.90
41547;DHT22;27271;45.412;10.852;2022-10-16T21:20:16;14.70;99.90
41547;DHT22;27271;45.412;10.852;2022-10-16T21:23:38;14.70;99.90
41547;DHT22;27271;45.412;10.852;2022-10-16T21:27:00;14.70;99.90
41547;DHT22;27271;45.412;10.852;2022-10-16T21:30:22;14.70;99.90
41547;DHT22;27271;45.412;10.852;2022-10-16T21:33:44;14.70;99.90
41547;DHT22;27271;45.412;10.852;2022-10-16T21:37:06;14.70;99.90
41547;DHT22;27271;45.412;10.852;2022-10-16T21:40:28;14.60;99.90
41547;DHT22;27271;45.412;10.852;2022-10-16T21:43:51;14.60;99.90
41547;DHT22;27271;45.412;10.852;2022-10-16T21:47:13;14.60;99.90
41547;DHT22;27271;45.412;10.852;2022-10-16T21:50:35;14.60;99.90
41547;DHT22;27271;45.412;10.852;2022-10-16T21:53:58;14.60;99.90
41547;DHT22;27271;45.412;10.852;2022-10-16T21:57:20;14.60;99.90
41547;DHT22;27271;45.412;10.852;2022-10-16T22:00:44;14.60;99.90
41547;DHT22;27271;45.412;10.852;2022-10-16T22:04:05;14.60;99.90
41547;DHT22;27271;45.412;10.852;2022-10-16T22:07:28;14.60;99.90
41547;DHT22;27271;45.412;10.852;2022-10-16T22:10:51;14.60;99.90
41547;DHT22;27271;45.412;10.852;2022-10-16T22:14:16;14.50;99.90
41547;DHT22;27271;45.412;10.852;2022-10-16T22:17:41;14.50;99.90
41547;DHT22;27271;45.412;10.852;2022-10-16T22:21:07;14.50;99.90
41547;DHT22;27271;45.412;10.852;2022-10-16T22:24:29;14.50;99.90
41547;DHT22;27271;45.412;10.852;2022-10-16T22:27:53;14.40;99.90
41547;DHT22;27271;45.412;10.852;2022-10-16T22:31:15;14.40;99.90
41547;DHT22;27271;45.412;10.852;2022-10-16T22:34:37;14.40;99.90
41547;DHT22;27271;45.412;10.852;2022-10-16T22:37:59;14.40;99.90
41547;DHT22;27271;45.412;10.852;2022-10-16T22:41:25;14.40;99.90
41547;DHT22;27271;45.412;10.852;2022-10-16T22:44:47;14.40;99.90
41547;DHT22;27271;45.412;10.852;2022-10-16T22:48:09;14.40;99.90
41547;DHT22;27271;45.412;10.852;2022-10-16T22:51:31;14.40;99.90
41547;DHT22;27271;45.412;10.852;2022-10-16T22:54:53;14.40;99.90
41547;DHT22;27271;45.412;10.852;2022-10-16T22:58:15;14.40;99.90
41547;DHT22;27271;45.412;10.852;2022-10-16T23:01:40;14.40;99.90
41547;DHT22;27271;45.412;10.852;2022-10-16T23:05:02;14.30;99.90
41547;DHT22;27271;45.412;10.852;2022-10-16T23:08:24;14.30;99.90
41547;DHT22;27271;45.412;10.852;2022-10-16T23:11:46;14.30;99.90
41547;DHT22;27271;45.412;10.852;2022-10-16T23:15:09;14.30;99.90
41547;DHT22;27271;45.412;10.852;2022-10-16T23:18:39;14.30;99.90
41547;DHT22;27271;45.412;10.852;2022-10-16T23:22:02;14.40;99.90
41547;DHT22;27271;45.412;10.852;2022-10-16T23:25:24;14.40;99.90
41547;DHT22;27271;45.412;10.852;2022-10-16T23:28:49;14.40;99.90
41547;DHT22;27271;45.412;10.852;2022-10-16T23:32:11;14.40;99.90
41547;DHT22;27271;45.412;10.852;2022-10-16T23:35:38;14.30;99.90
41547;DHT22;27271;45.412;10.852;2022-10-16T23:39:00;14.40;99.90
41547;DHT22;27271;45.412;10.852;2022-10-16T23:43:00;14.30;99.90
41547;DHT22;27271;45.412;10.852;2022-10-16T23:46:55;14.20;99.90
41547;DHT22;27271;45.412;10.852;2022-10-16T23:50:47;14.20;99.90
41547;DHT22;27271;45.412;10.852;2022-10-16T23:54:09;14.10;99.90
41547;DHT22;27271;45.412;10.852;2022-10-16T23:57:31;14.10;99.90
